sensor_id;sensor_type;location;lat;lon;timestamp;temperature;humidity
35541;DHT22;21650;48.840;9.162;2024-02-23T00:02:09;6.90;99.90
35541;DHT22;21650;48.840;9.162;2024-02-23T00:04:34;6.90;99.90
35541;DHT22;21650;48.840;9.162;2024-02-23T00:07:00;6.90;99.90
35541;DHT22;21650;48.840;9.162;2024-02-23T00:09:28;6.90;99.90
35541;DHT22;21650;48.840;9.162;2024-02-23T00:11:54;6.80;99.90
35541;DHT22;21650;48.840;9.162;2024-02-23T00:14:19;6.80;99.90
35541;DHT22;21650;48.840;9.162;2024-02-23T00:16:46;6.80;99.90
35541;DHT22;21650;48.840;9.162;2024-02-23T00:19:12;6.90;99.90
35541;DHT22;21650;48.840;9.162;2024-02-23T00:21:38;6.80;99.90
35541;DHT22;21650;48.840;9.162;2024-02-23T00:24:06;6.80;99.90
35541;DHT22;21650;48.840;9.162;2024-02-23T00:26:31;6.80;99.90
35541;DHT22;21650;48.840;9.162;2024-02-23T00:28:57;6.90;99.90
35541;DHT22;21650;48.840;9.162;2024-02-23T00:31:22;6.90;99.90
35541;DHT22;21650;48.840;9.162;2024-02-23T00:33:48;6.80;99.90
35541;DHT22;21650;48.840;9.162;2024-02-23T00:36:14;6.90;99.90
35541;DHT22;21650;48.840;9.162;2024-02-23T00:38:40;6.80;99.90
35541;DHT22;21650;48.840;9.162;2024-02-23T00:41:05;6.90;99.90
35541;DHT22;21650;48.840;9.162;2024-02-23T00:43:40;6.80;99.90
35541;DHT22;21650;48.840;9.162;2024-02-23T00:46:09;6.80;99.90
35541;DHT22;21650;48.840;9.162;2024-02-23T00:48:35;6.90;99.90
35541;DHT22;21650;48.840;9.162;2024-02-23T00:51:02;6.90;99.90
35541;DHT22;21650;48.840;9.162;2024-02-23T00:53:28;6.90;99.90
35541;DHT22;21650;48.840;9.162;2024-02-23T00:55:54;6.90;99.90
35541;DHT22;21650;48.840;9.162;2024-02-23T00:58:20;6.90;99.90
35541;DHT22;21650;48.840;9.162;2024-02-23T01:00:45;6.90;99.90
35541;DHT22;21650;48.840;9.162;2024-02-23T01:03:11;6.90;99.90
35541;DHT22;21650;48.840;9.162;2024-02-23T01:05:36;6.90;99.90
35541;DHT22;21650;48.840;9.162;2024-02-23T01:08:03;6.90;99.90
35541;DHT22;21650;48.840;9.162;2024-02-23T01:10:29;6.90;99.90
35541;DHT22;21650;48.840;9.162;2024-02-23T01:12:55;6.90;99.90
35541;DHT22;21650;48.840;9.162;2024-02-23T01:15:20;6.90;99.90
35541;DHT22;21650;48.840;9.162;2024-02-23T01:17:46;6.90;99.90
35541;DHT22;21650;48.840;9.162;2024-02-23T01:20:12;6.90;99.90
35541;DHT22;21650;48.840;9.162;2024-02-23T01:22:37;6.90;99.90
35541;DHT22;21650;48.840;9.162;2024-02-23T01:25:04;6.90;99.90
35541;DHT22;21650;48.840;9.162;2024-02-23T01:27:29;6.80;99.90
35541;DHT22;21650;48.840;9.162;2024-02-23T01:29:55;6.90;99.90
35541;DHT22;21650;48.840;9.162;2024-02-23T01:32:21;6.80;99.90
35541;DHT22;21650;48.840;9.162;2024-02-23T01:34:47;6.80;99.90
35541;DHT22;21650;48.840;9.162;2024-02-23T01:37:12;6.80;99.90
35541;DHT22;21650;48.840;9.162;2024-02-23T01:39:38;6.70;99.90
35541;DHT22;21650;48.840;9.162;2024-02-23T01:42:04;6.70;99.90
35541;DHT22;21650;48.840;9.162;2024-02-23T01:44:30;6.70;99.90
35541;DHT22;21650;48.840;9.162;2024-02-23T01:46:55;6.70;99.90
35541;DHT22;21650;48.840;9.162;2024-02-23T01:49:22;6.70;99.90
35541;DHT22;21650;48.840;9.162;2024-02-23T01:51:48;6.70;99.90
35541;DHT22;21650;48.840;9.162;2024-02-23T01:54:15;6.70;99.90
35541;DHT22;21650;48.840;9.162;2024-02-23T01:56:42;6.60;99.90
35541;DHT22;21650;48.840;9.162;2024-02-23T01:59:09;6.70;99.90
35541;DHT22;21650;48.840;9.162;2024-02-23T02:01:36;6.70;99.90
35541;DHT22;21650;48.840;9.162;2024-02-23T02:04:01;6.70;99.90
35541;DHT22;21650;48.840;9.162;2024-02-23T02:06:27;6.70;99.90
35541;DHT22;21650;48.840;9.162;2024-02-23T02:08:53;6.70;99.90
35541;DHT22;21650;48.840;9.162;2024-02-23T02:11:19;6.70;99.90
35541;DHT22;21650;48.840;9.162;2024-02-23T02:13:45;6.70;99.90
35541;DHT22;21650;48.840;9.162;2024-02-23T02:16:12;6.70;99.90
35541;DHT22;21650;48.840;9.162;2024-02-23T02:18:37;6.70;99.90
35541;DHT22;21650;48.840;9.162;2024-02-23T02:21:03;6.70;99.90
35541;DHT22;21650;48.840;9.162;2024-02-23T02:23:29;6.70;99.90
35541;DHT22;21650;48.840;9.162;2024-02-23T02:25:55;6.70;99.90
35541;DHT22;21650;48.840;9.162;2024-02-23T02:28:22;6.50;99.90
35541;DHT22;21650;48.840;9.162;2024-02-23T02:30:49;6.50;99.90
35541;DHT22;21650;48.840;9.162;2024-02-23T02:33:15;6.50;99.90
35541;DHT22;21650;48.840;9.162;2024-02-23T02:35:40;6.50;99.90
35541;DHT22;21650;48.840;9.162;2024-02-23T02:38:06;6.40;99.90
35541;DHT22;21650;48.840;9.162;2024-02-23T02:40:53;6.30;99.90
35541;DHT22;21650;48.840;9.162;2024-02-23T02:43:19;6.30;99.90
35541;DHT22;21650;48.840;9.162;2024-02-23T02:45:44;6.30;99.90
35541;DHT22;21650;48.840;9.162;2024-02-23T02:48:10;6.30;99.90
35541;DHT22;21650;48.840;9.162;2024-02-23T02:50:36;6.40;99.90
35541;DHT22;21650;48.840;9.162;2024-02-23T02:53:01;6.40;99.90
35541;DHT22;21650;48.840;9.162;2024-02-23T02:55:27;6.40;99.90
35541;DHT22;21650;48.840;9.162;2024-02-23T02:57:52;6.30;99.90
35541;DHT22;21650;48.840;9.162;2024-02-23T03:00:18;6.30;99.90
35541;DHT22;21650;48.840;9.162;2024-02-23T03:02:43;6.30;99.90
35541;DHT22;21650;48.840;9.162;2024-02-23T03:05:09;6.20;99.90
35541;DHT22;21650;48.840;9.162;2024-02-23T03:07:35;6.10;99.90
35541;DHT22;21650;48.840;9.162;2024-02-23T03:10:01;6.10;99.90
35541;DHT22;21650;48.840;9.162;2024-02-23T03:12:27;6.10;99.90
35541;DHT22;21650;48.840;9.162;2024-02-23T03:14:52;6.10;99.90
35541;DHT22;21650;48.840;9.162;2024-02-23T03:17:18;6.20;99.90
35541;DHT22;21650;48.840;9.162;2024-02-23T03:19:43;6.20;99.90
35541;DHT22;21650;48.840;9.162;2024-02-23T03:22:09;6.10;99.90
35541;DHT22;21650;48.840;9.162;2024-02-23T03:24:35;6.20;99.90
35541;DHT22;21650;48.840;9.162;2024-02-23T03:27:00;6.30;99.90
35541;DHT22;21650;48.840;9.162;2024-02-23T03:29:26;6.20;99.90
35541;DHT22;21650;48.840;9.162;2024-02-23T03:31:55;6.30;99.90
35541;DHT22;21650;48.840;9.162;2024-02-23T03:34:26;6.20;99.90
35541;DHT22;21650;48.840;9.162;2024-02-23T03:36:51;6.30;99.90
35541;DHT22;21650;48.840;9.162;2024-02-23T03:39:17;6.30;99.90
35541;DHT22;21650;48.840;9.162;2024-02-23T03:41:43;6.20;99.90
35541;DHT22;21650;48.840;9.162;2024-02-23T03:44:08;6.30;99.90
35541;DHT22;21650;48.840;9.162;2024-02-23T03:46:34;6.30;99.90
35541;DHT22;21650;48.840;9.162;2024-02-23T03:49:00;6.30;99.90
35541;DHT22;21650;48.840;9.162;2024-02-23T03:51:25;6.30;99.90
35541;DHT22;21650;48.840;9.162;2024-02-23T03:53:51;6.30;99.90
35541;DHT22;21650;48.840;9.162;2024-02-23T03:56:17;6.30;99.90
35541;DHT22;21650;48.840;9.162;2024-02-23T03:58:42;6.30;99.90
35541;DHT22;21650;48.840;9.162;2024-02-23T04:01:08;6.30;99.90
35541;DHT22;21650;48.840;9.162;2024-02-23T04:03:35;6.30;99.90
35541;DHT22;21650;48.840;9.162;2024-02-23T04:06:00;6.20;99.90
35541;DHT22;21650;48.840;9.162;2024-02-23T04:08:26;6.20;99.90
35541;DHT22;21650;48.840;9.162;2024-02-23T04:10:52;6.20;99.90
35541;DHT22;21650;48.840;9.162;2024-02-23T04:13:17;6.10;99.90
35541;DHT22;21650;48.840;9.162;2024-02-23T04:15:46;6.10;99.90
35541;DHT22;21650;48.840;9.162;2024-02-23T04:18:12;6.10;99.90
35541;DHT22;21650;48.840;9.162;2024-02-23T04:20:38;6.10;99.90
35541;DHT22;21650;48.840;9.162;2024-02-23T04:23:03;6.10;99.90
35541;DHT22;21650;48.840;9.162;2024-02-23T04:25:29;6.10;99.90
35541;DHT22;21650;48.840;9.162;2024-02-23T04:27:54;6.00;99.90
35541;DHT22;21650;48.840;9.162;2024-02-23T04:30:20;5.90;99.90
35541;DHT22;21650;48.840;9.162;2024-02-23T04:32:46;5.90;99.90
35541;DHT22;21650;48.840;9.162;2024-02-23T04:35:11;5.90;99.90
35541;DHT22;21650;48.840;9.162;2024-02-23T04:37:37;5.90;99.90
35541;DHT22;21650;48.840;9.162;2024-02-23T04:40:03;5.90;99.90
35541;DHT22;21650;48.840;9.162;2024-02-23T04:42:31;5.90;99.90
35541;DHT22;21650;48.840;9.162;2024-02-23T04:44:56;5.90;99.90
35541;DHT22;21650;48.840;9.162;2024-02-23T04:47:22;6.00;99.90
35541;DHT22;21650;48.840;9.162;2024-02-23T04:49:47;5.90;99.90
35541;DHT22;21650;48.840;9.162;2024-02-23T04:52:14;5.90;99.90
35541;DHT22;21650;48.840;9.162;2024-02-23T04:54:40;5.90;99.90
35541;DHT22;21650;48.840;9.162;2024-02-23T04:57:06;5.90;99.90
35541;DHT22;21650;48.840;9.162;2024-02-23T04:59:31;5.90;99.90
35541;DHT22;21650;48.840;9.162;2024-02-23T05:01:58;5.70;99.90
35541;DHT22;21650;48.840;9.162;2024-02-23T05:04:24;5.80;99.90
35541;DHT22;21650;48.840;9.162;2024-02-23T05:06:52;5.70;99.90
35541;DHT22;21650;48.840;9.162;2024-02-23T05:09:17;5.80;99.90
35541;DHT22;21650;48.840;9.162;2024-02-23T05:11:43;5.70;99.90
35541;DHT22;21650;48.840;9.162;2024-02-23T05:14:11;5.70;99.90
35541;DHT22;21650;48.840;9.162;2024-02-23T05:16:36;5.80;99.90
35541;DHT22;21650;48.840;9.162;2024-02-23T05:19:02;5.80;99.90
35541;DHT22;21650;48.840;9.162;2024-02-23T05:21:28;5.70;99.90
35541;DHT22;21650;48.840;9.162;2024-02-23T05:23:53;5.70;99.90
35541;DHT22;21650;48.840;9.162;2024-02-23T05:26:19;5.70;99.90
35541;DHT22;21650;48.840;9.162;2024-02-23T05:28:45;5.70;99.90
35541;DHT22;21650;48.840;9.162;2024-02-23T05:31:11;5.70;99.90
35541;DHT22;21650;48.840;9.162;2024-02-23T05:33:36;5.70;99.90
35541;DHT22;21650;48.840;9.162;2024-02-23T05:36:04;5.70;99.90
35541;DHT22;21650;48.840;9.162;2024-02-23T05:38:30;5.70;99.90
35541;DHT22;21650;48.840;9.162;2024-02-23T05:40:56;5.70;99.90
35541;DHT22;21650;48.840;9.162;2024-02-23T05:43:22;5.60;99.90
35541;DHT22;21650;48.840;9.162;2024-02-23T05:45:47;5.50;99.90
35541;DHT22;21650;48.840;9.162;2024-02-23T05:48:13;5.50;99.90
35541;DHT22;21650;48.840;9.162;2024-02-23T05:50:39;5.40;99.90
35541;DHT22;21650;48.840;9.162;2024-02-23T05:53:04;5.40;99.90
35541;DHT22;21650;48.840;9.162;2024-02-23T05:55:30;5.40;99.90
35541;DHT22;21650;48.840;9.162;2024-02-23T05:57:56;5.40;99.90
35541;DHT22;21650;48.840;9.162;2024-02-23T06:00:22;5.30;99.90
35541;DHT22;21650;48.840;9.162;2024-02-23T06:02:47;5.40;99.90
35541;DHT22;21650;48.840;9.162;2024-02-23T06:05:13;5.30;99.90
35541;DHT22;21650;48.840;9.162;2024-02-23T06:07:41;5.20;99.90
35541;DHT22;21650;48.840;9.162;2024-02-23T06:10:07;5.20;99.90
35541;DHT22;21650;48.840;9.162;2024-02-23T06:12:32;5.20;99.90
35541;DHT22;21650;48.840;9.162;2024-02-23T06:14:58;5.20;99.90
35541;DHT22;21650;48.840;9.162;2024-02-23T06:17:24;5.20;99.90
35541;DHT22;21650;48.840;9.162;2024-02-23T06:19:50;5.20;99.90
35541;DHT22;21650;48.840;9.162;2024-02-23T06:22:18;5.20;99.90
35541;DHT22;21650;48.840;9.162;2024-02-23T06:24:47;5.10;99.90
35541;DHT22;21650;48.840;9.162;2024-02-23T06:27:12;5.20;99.90
35541;DHT22;21650;48.840;9.162;2024-02-23T06:29:38;5.10;99.90
35541;DHT22;21650;48.840;9.162;2024-02-23T06:32:04;5.10;99.90
35541;DHT22;21650;48.840;9.162;2024-02-23T06:34:29;5.20;99.90
35541;DHT22;21650;48.840;9.162;2024-02-23T06:36:55;5.20;99.90
35541;DHT22;21650;48.840;9.162;2024-02-23T06:39:21;5.10;99.90
35541;DHT22;21650;48.840;9.162;2024-02-23T06:41:46;5.10;99.90
35541;DHT22;21650;48.840;9.162;2024-02-23T06:44:12;5.10;99.90
35541;DHT22;21650;48.840;9.162;2024-02-23T06:46:38;5.10;99.90
35541;DHT22;21650;48.840;9.162;2024-02-23T06:49:03;5.20;99.90
35541;DHT22;21650;48.840;9.162;2024-02-23T06:51:31;5.10;99.90
35541;DHT22;21650;48.840;9.162;2024-02-23T06:53:56;5.10;99.90
35541;DHT22;21650;48.840;9.162;2024-02-23T06:56:22;5.10;99.90
35541;DHT22;21650;48.840;9.162;2024-02-23T06:58:48;5.20;99.90
35541;DHT22;21650;48.840;9.162;2024-02-23T07:01:13;5.10;99.90
35541;DHT22;21650;48.840;9.162;2024-02-23T07:03:39;5.20;99.90
35541;DHT22;21650;48.840;9.162;2024-02-23T07:06:06;5.20;99.90
35541;DHT22;21650;48.840;9.162;2024-02-23T07:08:32;5.20;99.90
35541;DHT22;21650;48.840;9.162;2024-02-23T07:10:57;5.30;99.90
35541;DHT22;21650;48.840;9.162;2024-02-23T07:13:23;5.40;99.90
35541;DHT22;21650;48.840;9.162;2024-02-23T07:15:48;5.40;99.90
35541;DHT22;21650;48.840;9.162;2024-02-23T07:18:14;5.50;99.90
35541;DHT22;21650;48.840;9.162;2024-02-23T07:20:41;5.50;99.90
35541;DHT22;21650;48.840;9.162;2024-02-23T07:23:07;5.50;99.90
35541;DHT22;21650;48.840;9.162;2024-02-23T07:25:33;5.50;99.90
35541;DHT22;21650;48.840;9.162;2024-02-23T07:27:58;5.50;99.90
35541;DHT22;21650;48.840;9.162;2024-02-23T07:30:24;5.50;99.90
35541;DHT22;21650;48.840;9.162;2024-02-23T07:32:49;5.50;99.90
35541;DHT22;21650;48.840;9.162;2024-02-23T07:35:15;5.50;99.90
35541;DHT22;21650;48.840;9.162;2024-02-23T07:37:41;5.50;99.90
35541;DHT22;21650;48.840;9.162;2024-02-23T07:40:07;5.50;99.90
35541;DHT22;21650;48.840;9.162;2024-02-23T07:42:33;5.50;99.90
35541;DHT22;21650;48.840;9.162;2024-02-23T07:45:02;5.60;99.90
35541;DHT22;21650;48.840;9.162;2024-02-23T07:47:30;5.60;99.90
35541;DHT22;21650;48.840;9.162;2024-02-23T07:49:55;5.60;99.90
35541;DHT22;21650;48.840;9.162;2024-02-23T07:52:21;5.70;99.90
35541;DHT22;21650;48.840;9.162;2024-02-23T07:54:49;5.80;99.90
35541;DHT22;21650;48.840;9.162;2024-02-23T07:57:17;5.80;99.90
35541;DHT22;21650;48.840;9.162;2024-02-23T07:59:43;5.80;99.90
35541;DHT22;21650;48.840;9.162;2024-02-23T08:02:08;5.80;99.90
35541;DHT22;21650;48.840;9.162;2024-02-23T08:04:34;5.80;99.90
35541;DHT22;21650;48.840;9.162;2024-02-23T08:06:59;5.80;99.90
35541;DHT22;21650;48.840;9.162;2024-02-23T08:09:25;5.80;99.90
35541;DHT22;21650;48.840;9.162;2024-02-23T08:11:51;5.80;99.90
35541;DHT22;21650;48.840;9.162;2024-02-23T08:14:16;5.80;99.90
35541;DHT22;21650;48.840;9.162;2024-02-23T08:16:42;5.80;99.90
35541;DHT22;21650;48.840;9.162;2024-02-23T08:19:07;5.80;99.90
35541;DHT22;21650;48.840;9.162;2024-02-23T08:21:33;5.80;99.90
35541;DHT22;21650;48.840;9.162;2024-02-23T08:23:59;5.80;99.90
35541;DHT22;21650;48.840;9.162;2024-02-23T08:26:24;5.70;99.90
35541;DHT22;21650;48.840;9.162;2024-02-23T08:28:50;5.70;99.90
35541;DHT22;21650;48.840;9.162;2024-02-23T08:31:16;5.80;99.90
35541;DHT22;21650;48.840;9.162;2024-02-23T08:33:42;5.80;99.90
35541;DHT22;21650;48.840;9.162;2024-02-23T08:36:08;5.80;99.90
35541;DHT22;21650;48.840;9.162;2024-02-23T08:38:33;5.90;99.90
35541;DHT22;21650;48.840;9.162;2024-02-23T08:40:59;5.80;99.90
35541;DHT22;21650;48.840;9.162;2024-02-23T08:43:25;5.90;99.90
35541;DHT22;21650;48.840;9.162;2024-02-23T08:45:51;5.80;99.90
35541;DHT22;21650;48.840;9.162;2024-02-23T08:48:17;5.80;99.90
35541;DHT22;21650;48.840;9.162;2024-02-23T08:50:43;5.90;99.90
35541;DHT22;21650;48.840;9.162;2024-02-23T08:53:09;5.90;99.90
35541;DHT22;21650;48.840;9.162;2024-02-23T08:55:34;5.90;99.90
35541;DHT22;21650;48.840;9.162;2024-02-23T08:58:00;6.00;99.90
35541;DHT22;21650;48.840;9.162;2024-02-23T09:00:26;6.00;99.90
35541;DHT22;21650;48.840;9.162;2024-02-23T09:02:51;6.10;99.90
35541;DHT22;21650;48.840;9.162;2024-02-23T09:05:17;6.10;99.90
35541;DHT22;21650;48.840;9.162;2024-02-23T09:07:43;6.10;99.90
35541;DHT22;21650;48.840;9.162;2024-02-23T09:10:10;6.10;99.90
35541;DHT22;21650;48.840;9.162;2024-02-23T09:12:37;6.20;99.90
35541;DHT22;21650;48.840;9.162;2024-02-23T09:15:04;6.20;99.90
35541;DHT22;21650;48.840;9.162;2024-02-23T09:17:30;6.20;99.90
35541;DHT22;21650;48.840;9.162;2024-02-23T09:19:56;6.20;99.90
35541;DHT22;21650;48.840;9.162;2024-02-23T09:22:22;6.20;99.90
35541;DHT22;21650;48.840;9.162;2024-02-23T09:24:48;6.20;99.90
35541;DHT22;21650;48.840;9.162;2024-02-23T09:27:13;6.20;99.90
35541;DHT22;21650;48.840;9.162;2024-02-23T09:29:41;6.20;99.90
35541;DHT22;21650;48.840;9.162;2024-02-23T09:32:09;6.20;99.90
35541;DHT22;21650;48.840;9.162;2024-02-23T09:34:35;6.30;99.90
35541;DHT22;21650;48.840;9.162;2024-02-23T09:37:01;6.30;99.90
35541;DHT22;21650;48.840;9.162;2024-02-23T09:39:26;6.30;99.90
35541;DHT22;21650;48.840;9.162;2024-02-23T09:41:56;6.30;99.90
35541;DHT22;21650;48.840;9.162;2024-02-23T09:44:28;6.30;99.90
35541;DHT22;21650;48.840;9.162;2024-02-23T09:46:57;6.30;99.90
35541;DHT22;21650;48.840;9.162;2024-02-23T09:49:23;6.30;99.90
35541;DHT22;21650;48.840;9.162;2024-02-23T09:51:49;6.50;99.90
35541;DHT22;21650;48.840;9.162;2024-02-23T09:54:14;6.60;99.90
35541;DHT22;21650;48.840;9.162;2024-02-23T09:56:41;6.70;99.90
35541;DHT22;21650;48.840;9.162;2024-02-23T09:59:09;6.70;99.90
35541;DHT22;21650;48.840;9.162;2024-02-23T10:01:40;6.80;99.90
35541;DHT22;21650;48.840;9.162;2024-02-23T10:04:07;7.00;99.90
35541;DHT22;21650;48.840;9.162;2024-02-23T10:06:33;7.10;99.90
35541;DHT22;21650;48.840;9.162;2024-02-23T10:08:59;7.10;99.90
35541;DHT22;21650;48.840;9.162;2024-02-23T10:11:24;7.20;99.90
35541;DHT22;21650;48.840;9.162;2024-02-23T10:13:53;7.30;99.90
35541;DHT22;21650;48.840;9.162;2024-02-23T10:16:20;7.30;99.90
35541;DHT22;21650;48.840;9.162;2024-02-23T10:18:47;7.30;99.90
35541;DHT22;21650;48.840;9.162;2024-02-23T10:21:16;7.20;99.90
35541;DHT22;21650;48.840;9.162;2024-02-23T10:23:44;7.30;99.90
35541;DHT22;21650;48.840;9.162;2024-02-23T10:26:10;7.20;99.90
35541;DHT22;21650;48.840;9.162;2024-02-23T10:28:37;7.30;99.90
35541;DHT22;21650;48.840;9.162;2024-02-23T10:31:06;7.30;99.90
35541;DHT22;21650;48.840;9.162;2024-02-23T10:33:31;7.40;99.90
35541;DHT22;21650;48.840;9.162;2024-02-23T10:35:57;7.40;99.90
35541;DHT22;21650;48.840;9.162;2024-02-23T10:38:23;7.50;99.90
35541;DHT22;21650;48.840;9.162;2024-02-23T10:40:50;7.40;99.90
35541;DHT22;21650;48.840;9.162;2024-02-23T10:43:19;7.50;99.90
35541;DHT22;21650;48.840;9.162;2024-02-23T10:45:46;7.40;99.90
35541;DHT22;21650;48.840;9.162;2024-02-23T10:48:15;7.30;99.90
35541;DHT22;21650;48.840;9.162;2024-02-23T10:50:41;7.60;99.90
35541;DHT22;21650;48.840;9.162;2024-02-23T10:53:10;7.70;99.90
35541;DHT22;21650;48.840;9.162;2024-02-23T10:55:37;7.90;99.90
35541;DHT22;21650;48.840;9.162;2024-02-23T10:58:08;8.00;99.90
35541;DHT22;21650;48.840;9.162;2024-02-23T11:00:37;8.10;99.90
35541;DHT22;21650;48.840;9.162;2024-02-23T11:03:03;8.20;99.90
35541;DHT22;21650;48.840;9.162;2024-02-23T11:05:32;8.10;99.90
35541;DHT22;21650;48.840;9.162;2024-02-23T11:08:00;8.10;99.90
35541;DHT22;21650;48.840;9.162;2024-02-23T11:10:25;8.20;99.90
35541;DHT22;21650;48.840;9.162;2024-02-23T11:13:00;8.20;99.90
35541;DHT22;21650;48.840;9.162;2024-02-23T11:15:27;8.20;99.90
35541;DHT22;21650;48.840;9.162;2024-02-23T11:17:55;8.10;99.90
35541;DHT22;21650;48.840;9.162;2024-02-23T11:20:21;8.20;99.90
35541;DHT22;21650;48.840;9.162;2024-02-23T11:22:54;8.20;99.90
35541;DHT22;21650;48.840;9.162;2024-02-23T11:25:20;8.20;99.90
35541;DHT22;21650;48.840;9.162;2024-02-23T11:27:49;8.20;99.90
35541;DHT22;21650;48.840;9.162;2024-02-23T11:30:17;8.30;99.90
35541;DHT22;21650;48.840;9.162;2024-02-23T11:32:50;8.30;99.90
35541;DHT22;21650;48.840;9.162;2024-02-23T11:35:19;8.40;99.90
35541;DHT22;21650;48.840;9.162;2024-02-23T11:37:49;8.30;99.90
35541;DHT22;21650;48.840;9.162;2024-02-23T11:40:22;8.30;99.90
35541;DHT22;21650;48.840;9.162;2024-02-23T11:42:48;8.30;99.90
35541;DHT22;21650;48.840;9.162;2024-02-23T11:45:13;8.30;99.90
35541;DHT22;21650;48.840;9.162;2024-02-23T11:47:39;8.40;99.90
35541;DHT22;21650;48.840;9.162;2024-02-23T11:50:11;8.40;99.90
35541;DHT22;21650;48.840;9.162;2024-02-23T11:52:39;8.30;99.90
35541;DHT22;21650;48.840;9.162;2024-02-23T11:55:06;8.40;99.90
35541;DHT22;21650;48.840;9.162;2024-02-23T11:57:33;8.40;99.90
35541;DHT22;21650;48.840;9.162;2024-02-23T12:00:04;8.30;99.90
35541;DHT22;21650;48.840;9.162;2024-02-23T12:02:32;8.20;99.90
35541;DHT22;21650;48.840;9.162;2024-02-23T12:04:58;8.20;99.90
35541;DHT22;21650;48.840;9.162;2024-02-23T12:07:23;8.20;99.90
35541;DHT22;21650;48.840;9.162;2024-02-23T12:09:51;8.20;99.90
35541;DHT22;21650;48.840;9.162;2024-02-23T12:12:17;8.20;99.90
35541;DHT22;21650;48.840;9.162;2024-02-23T12:14:44;8.10;99.90
35541;DHT22;21650;48.840;9.162;2024-02-23T12:17:09;8.10;99.90
35541;DHT22;21650;48.840;9.162;2024-02-23T12:19:41;8.10;99.90
35541;DHT22;21650;48.840;9.162;2024-02-23T12:22:07;8.10;99.90
35541;DHT22;21650;48.840;9.162;2024-02-23T12:24:35;8.10;99.90
35541;DHT22;21650;48.840;9.162;2024-02-23T12:27:01;8.00;99.90
35541;DHT22;21650;48.840;9.162;2024-02-23T12:29:26;8.10;99.90
35541;DHT22;21650;48.840;9.162;2024-02-23T12:32:05;8.10;99.90
35541;DHT22;21650;48.840;9.162;2024-02-23T12:34:32;8.10;99.90
35541;DHT22;21650;48.840;9.162;2024-02-23T12:36:57;8.20;99.90
35541;DHT22;21650;48.840;9.162;2024-02-23T12:39:23;8.30;99.90
35541;DHT22;21650;48.840;9.162;2024-02-23T12:41:49;8.30;99.90
35541;DHT22;21650;48.840;9.162;2024-02-23T12:44:16;8.30;99.90
35541;DHT22;21650;48.840;9.162;2024-02-23T12:46:41;8.40;99.90
35541;DHT22;21650;48.840;9.162;2024-02-23T12:49:07;8.40;99.90
35541;DHT22;21650;48.840;9.162;2024-02-23T12:51:33;8.50;99.90
35541;DHT22;21650;48.840;9.162;2024-02-23T12:53:59;8.60;99.90
35541;DHT22;21650;48.840;9.162;2024-02-23T12:56:25;8.60;99.90
35541;DHT22;21650;48.840;9.162;2024-02-23T12:58:51;8.50;99.90
35541;DHT22;21650;48.840;9.162;2024-02-23T13:01:19;8.50;99.90
35541;DHT22;21650;48.840;9.162;2024-02-23T13:03:44;8.40;99.90
35541;DHT22;21650;48.840;9.162;2024-02-23T13:06:10;8.40;99.90
35541;DHT22;21650;48.840;9.162;2024-02-23T13:08:35;8.50;99.90
35541;DHT22;21650;48.840;9.162;2024-02-23T13:11:01;8.50;99.90
35541;DHT22;21650;48.840;9.162;2024-02-23T13:13:27;8.50;99.90
35541;DHT22;21650;48.840;9.162;2024-02-23T13:15:54;8.40;99.90
35541;DHT22;21650;48.840;9.162;2024-02-23T13:18:20;8.40;99.90
35541;DHT22;21650;48.840;9.162;2024-02-23T13:20:45;8.50;99.90
35541;DHT22;21650;48.840;9.162;2024-02-23T13:23:12;8.40;99.90
35541;DHT22;21650;48.840;9.162;2024-02-23T13:25:40;8.50;99.90
35541;DHT22;21650;48.840;9.162;2024-02-23T13:28:06;8.60;99.90
35541;DHT22;21650;48.840;9.162;2024-02-23T13:30:33;8.60;99.90
35541;DHT22;21650;48.840;9.162;2024-02-23T13:32:59;8.60;99.90
35541;DHT22;21650;48.840;9.162;2024-02-23T13:35:25;8.60;99.90
35541;DHT22;21650;48.840;9.162;2024-02-23T13:37:52;8.60;99.90
35541;DHT22;21650;48.840;9.162;2024-02-23T13:40:17;8.50;99.90
35541;DHT22;21650;48.840;9.162;2024-02-23T13:42:43;8.50;99.90
35541;DHT22;21650;48.840;9.162;2024-02-23T13:45:11;8.60;99.90
35541;DHT22;21650;48.840;9.162;2024-02-23T13:47:39;8.70;99.90
35541;DHT22;21650;48.840;9.162;2024-02-23T13:50:05;8.70;99.90
35541;DHT22;21650;48.840;9.162;2024-02-23T13:52:31;8.70;99.90
35541;DHT22;21650;48.840;9.162;2024-02-23T13:54:57;8.70;99.90
35541;DHT22;21650;48.840;9.162;2024-02-23T13:57:23;8.80;99.90
35541;DHT22;21650;48.840;9.162;2024-02-23T13:59:49;8.80;99.90
35541;DHT22;21650;48.840;9.162;2024-02-23T14:02:15;8.60;99.90
35541;DHT22;21650;48.840;9.162;2024-02-23T14:04:41;8.70;99.90
35541;DHT22;21650;48.840;9.162;2024-02-23T14:07:07;8.60;99.90
35541;DHT22;21650;48.840;9.162;2024-02-23T14:09:33;8.50;99.90
35541;DHT22;21650;48.840;9.162;2024-02-23T14:11:59;8.50;99.90
35541;DHT22;21650;48.840;9.162;2024-02-23T14:14:24;8.60;99.90
35541;DHT22;21650;48.840;9.162;2024-02-23T14:16:50;8.70;99.90
35541;DHT22;21650;48.840;9.162;2024-02-23T14:19:16;8.70;99.90
35541;DHT22;21650;48.840;9.162;2024-02-23T14:21:42;8.90;99.90
35541;DHT22;21650;48.840;9.162;2024-02-23T14:24:07;9.00;99.90
35541;DHT22;21650;48.840;9.162;2024-02-23T14:26:33;9.10;99.90
35541;DHT22;21650;48.840;9.162;2024-02-23T14:28:59;8.90;99.90
35541;DHT22;21650;48.840;9.162;2024-02-23T14:31:25;8.80;99.90
35541;DHT22;21650;48.840;9.162;2024-02-23T14:33:51;8.70;99.90
35541;DHT22;21650;48.840;9.162;2024-02-23T14:36:17;8.60;99.90
35541;DHT22;21650;48.840;9.162;2024-02-23T14:38:43;8.70;99.90
35541;DHT22;21650;48.840;9.162;2024-02-23T14:41:09;8.70;99.90
35541;DHT22;21650;48.840;9.162;2024-02-23T14:43:35;8.80;99.90
35541;DHT22;21650;48.840;9.162;2024-02-23T14:46:02;8.80;99.90
35541;DHT22;21650;48.840;9.162;2024-02-23T14:48:27;8.80;99.90
35541;DHT22;21650;48.840;9.162;2024-02-23T14:50:53;8.80;99.90
35541;DHT22;21650;48.840;9.162;2024-02-23T14:53:19;8.80;99.90
35541;DHT22;21650;48.840;9.162;2024-02-23T14:55:44;8.80;99.90
35541;DHT22;21650;48.840;9.162;2024-02-23T14:58:10;8.80;99.90
35541;DHT22;21650;48.840;9.162;2024-02-23T15:00:35;8.80;99.90
35541;DHT22;21650;48.840;9.162;2024-02-23T15:03:02;8.80;99.90
35541;DHT22;21650;48.840;9.162;2024-02-23T15:05:28;8.70;99.90
35541;DHT22;21650;48.840;9.162;2024-02-23T15:07:53;8.80;99.90
35541;DHT22;21650;48.840;9.162;2024-02-23T15:10:20;8.80;99.90
35541;DHT22;21650;48.840;9.162;2024-02-23T15:12:46;8.80;99.90
35541;DHT22;21650;48.840;9.162;2024-02-23T15:15:12;8.70;99.90
35541;DHT22;21650;48.840;9.162;2024-02-23T15:17:39;8.60;99.90
35541;DHT22;21650;48.840;9.162;2024-02-23T15:20:07;8.60;99.90
35541;DHT22;21650;48.840;9.162;2024-02-23T15:22:34;8.60;99.90
35541;DHT22;21650;48.840;9.162;2024-02-23T15:24:59;8.50;99.90
35541;DHT22;21650;48.840;9.162;2024-02-23T15:27:25;8.50;99.90
35541;DHT22;21650;48.840;9.162;2024-02-23T15:29:51;8.40;99.90
35541;DHT22;21650;48.840;9.162;2024-02-23T15:32:17;8.50;99.90
35541;DHT22;21650;48.840;9.162;2024-02-23T15:34:42;8.50;99.90
35541;DHT22;21650;48.840;9.162;2024-02-23T15:37:08;8.50;99.90
35541;DHT22;21650;48.840;9.162;2024-02-23T15:39:33;8.50;99.90